Toquerville, UT (84774)

3:40 AM MST on January 27, 2015 (GMT -0700)
Cholla Creek | Change Station
CLOSE
Current Station
Personal Weather Station
Location: Toquerville, UT
Elevation: 3219 ft
Nearby Weather Stations

Elev 3219 ft 37.23 °N, 113.28 °W | Updated 14 seconds ago

Overcast
Overcast
49.1 °F
Feels Like 49 °F
N
0.0
Wind Variable Wind from NNE
Gusts 0.0 mph

Today
High -- | Low -- °F
--% Chance of Precip.
Yesterday
High -- | Low -- °F
Precip. -- in
7:40 AM 5:52 PM
First Quarter, 53% visible
Pressure 30.26 in
Visibility 10.0 miles
Clouds Overcast 5000 ft
Windchill 49 °F
Dew Point 46 °F
Humidity 87%
Rainfall 0.07 in
Snow Depth Not available.
UV 0.0 out of 12
Pollen 1.60 out of 12
Air Quality Not available.
Flu Activity Not available.
METAR KSGU 271035Z AUTO 36004KT 10SM OVC050 09/03 A3026 RMK AO1 P0004

More Conditions Fewer Conditions

Pressure 30.26 in
Visibility 10.0 miles
Clouds Overcast 5000 ft
Windchill 49 °F
Dew Point 46 °F
Humidity 87%
Rainfall 0.07 in
Snow Depth Not available.
UV 0.0 out of 12
Pollen 1.60 out of 12
Air Quality Not available.
Flu Activity Not available.
METAR KSGU 271035Z AUTO 36004KT 10SM OVC050 09/03 A3026 RMK AO1 P0004

More Conditions Fewer Conditions

10-Day Weather Forecast

Almanac

Astronomy

Jan. 27, 2015 Rise Set
Actual Time
Civil Twilight
Nautical Twilight
Astronomical Twilight
Moon
Length of Visible Light
Length of Day
Tomorrow will be .
, % of the Moon is Illuminated

Today's Extremes

State Highs State Lows

Community

WunderPhotos

Upload Photos

1,790,562 photos uploaded!

WunderBlogs® & News

Nearby

Air Quality

  Air Quality AQ Index Pollutant
Not available.

Snow Depth

Station Depth Elevation

Earthquake Activity

City Distance Mag. Time & Date
Minimum magnitude displayed is 2.5.

Coastal Water Temperatures

Place Temperature

Nearby Weather Stations